sensor_id;sensor_type;location;lat;lon;timestamp;temperature;humidity
12223;DHT22;6174;49.058;8.524;2024-02-26T06:00:19;8.40;99.90
12223;DHT22;6174;49.058;8.524;2024-02-26T06:02:46;8.50;99.90
12223;DHT22;6174;49.058;8.524;2024-02-26T06:05:13;8.60;99.90
12223;DHT22;6174;49.058;8.524;2024-02-26T06:07:40;8.60;99.90
12223;DHT22;6174;49.058;8.524;2024-02-26T06:10:07;8.60;99.90
12223;DHT22;6174;49.058;8.524;2024-02-26T06:12:35;8.60;99.90
12223;DHT22;6174;49.058;8.524;2024-02-26T06:15:02;8.60;99.90
12223;DHT22;6174;49.058;8.524;2024-02-26T06:17:31;8.50;99.90
12223;DHT22;6174;49.058;8.524;2024-02-26T06:19:58;8.60;99.90
12223;DHT22;6174;49.058;8.524;2024-02-26T06:22:25;8.40;99.90
12223;DHT22;6174;49.058;8.524;2024-02-26T06:24:52;8.40;99.90
12223;DHT22;6174;49.058;8.524;2024-02-26T06:27:19;8.40;99.90
12223;DHT22;6174;49.058;8.524;2024-02-26T06:29:47;8.40;99.90
12223;DHT22;6174;49.058;8.524;2024-02-26T06:32:13;8.30;99.90
12223;DHT22;6174;49.058;8.524;2024-02-26T06:34:41;8.30;99.90
12223;DHT22;6174;49.058;8.524;2024-02-26T06:37:08;8.40;99.90
12223;DHT22;6174;49.058;8.524;2024-02-26T06:39:35;8.30;99.90
12223;DHT22;6174;49.058;8.524;2024-02-26T06:42:02;8.10;99.90
12223;DHT22;6174;49.058;8.524;2024-02-26T06:44:29;8.20;99.90
12223;DHT22;6174;49.058;8.524;2024-02-26T06:46:57;8.20;99.90
12223;DHT22;6174;49.058;8.524;2024-02-26T06:49:25;8.20;99.90
12223;DHT22;6174;49.058;8.524;2024-02-26T06:51:53;8.20;99.90
12223;DHT22;6174;49.058;8.524;2024-02-26T06:54:20;8.20;99.90
12223;DHT22;6174;49.058;8.524;2024-02-26T06:56:47;8.20;99.90
12223;DHT22;6174;49.058;8.524;2024-02-26T06:59:14;8.20;99.90
12223;DHT22;6174;49.058;8.524;2024-02-26T07:01:41;8.20;99.90
12223;DHT22;6174;49.058;8.524;2024-02-26T07:04:08;8.20;99.90
12223;DHT22;6174;49.058;8.524;2024-02-26T07:06:36;8.30;99.90
12223;DHT22;6174;49.058;8.524;2024-02-26T07:09:04;8.30;99.90
12223;DHT22;6174;49.058;8.524;2024-02-26T07:11:31;8.30;99.90
12223;DHT22;6174;49.058;8.524;2024-02-26T07:13:58;8.20;99.90
12223;DHT22;6174;49.058;8.524;2024-02-26T07:16:26;8.20;99.90
12223;DHT22;6174;49.058;8.524;2024-02-26T07:18:53;8.00;99.90
12223;DHT22;6174;49.058;8.524;2024-02-26T07:21:19;8.00;99.90
12223;DHT22;6174;49.058;8.524;2024-02-26T07:23:46;8.00;99.90
12223;DHT22;6174;49.058;8.524;2024-02-26T07:26:14;8.10;99.90
12223;DHT22;6174;49.058;8.524;2024-02-26T07:28:42;8.00;99.90
12223;DHT22;6174;49.058;8.524;2024-02-26T07:31:09;8.10;99.90
12223;DHT22;6174;49.058;8.524;2024-02-26T07:33:36;8.20;99.90
12223;DHT22;6174;49.058;8.524;2024-02-26T07:36:03;8.00;99.90
12223;DHT22;6174;49.058;8.524;2024-02-26T07:38:30;8.10;99.90
12223;DHT22;6174;49.058;8.524;2024-02-26T07:40:57;8.10;99.90
12223;DHT22;6174;49.058;8.524;2024-02-26T07:43:25;8.10;99.90
12223;DHT22;6174;49.058;8.524;2024-02-26T07:45:51;8.00;99.90
12223;DHT22;6174;49.058;8.524;2024-02-26T07:48:18;7.90;99.90
12223;DHT22;6174;49.058;8.524;2024-02-26T07:50:45;8.10;99.90
12223;DHT22;6174;49.058;8.524;2024-02-26T07:53:12;8.10;99.90
12223;DHT22;6174;49.058;8.524;2024-02-26T07:55:39;8.10;99.90
12223;DHT22;6174;49.058;8.524;2024-02-26T07:58:06;8.00;99.90
12223;DHT22;6174;49.058;8.524;2024-02-26T08:00:34;7.90;99.90
12223;DHT22;6174;49.058;8.524;2024-02-26T08:03:01;8.00;99.90
12223;DHT22;6174;49.058;8.524;2024-02-26T08:05:28;8.10;99.90
12223;DHT22;6174;49.058;8.524;2024-02-26T08:07:55;8.30;99.90
12223;DHT22;6174;49.058;8.524;2024-02-26T08:10:22;8.20;99.90
12223;DHT22;6174;49.058;8.524;2024-02-26T08:12:48;8.20;99.90
12223;DHT22;6174;49.058;8.524;2024-02-26T08:15:15;8.30;99.90
12223;DHT22;6174;49.058;8.524;2024-02-26T08:17:45;8.30;99.90
12223;DHT22;6174;49.058;8.524;2024-02-26T08:20:13;8.30;99.90
12223;DHT22;6174;49.058;8.524;2024-02-26T08:22:40;8.30;99.90
12223;DHT22;6174;49.058;8.524;2024-02-26T08:25:07;8.40;99.90
12223;DHT22;6174;49.058;8.524;2024-02-26T08:27:35;8.40;99.90
12223;DHT22;6174;49.058;8.524;2024-02-26T08:30:02;8.40;99.90
12223;DHT22;6174;49.058;8.524;2024-02-26T08:32:29;8.40;99.90
12223;DHT22;6174;49.058;8.524;2024-02-26T08:34:57;8.40;99.90
12223;DHT22;6174;49.058;8.524;2024-02-26T08:37:24;8.50;99.90
12223;DHT22;6174;49.058;8.524;2024-02-26T08:39:51;8.60;99.90
12223;DHT22;6174;49.058;8.524;2024-02-26T08:42:18;8.70;99.90
12223;DHT22;6174;49.058;8.524;2024-02-26T08:44:44;8.90;99.90
12223;DHT22;6174;49.058;8.524;2024-02-26T08:47:11;8.90;99.90
12223;DHT22;6174;49.058;8.524;2024-02-26T08:49:42;9.00;99.90
12223;DHT22;6174;49.058;8.524;2024-02-26T08:52:10;9.20;99.90
12223;DHT22;6174;49.058;8.524;2024-02-26T08:54:37;9.20;99.90
12223;DHT22;6174;49.058;8.524;2024-02-26T08:57:04;9.40;99.90
12223;DHT22;6174;49.058;8.524;2024-02-26T08:59:31;9.30;99.90
12223;DHT22;6174;49.058;8.524;2024-02-26T09:01:58;9.50;99.90
12223;DHT22;6174;49.058;8.524;2024-02-26T09:04:25;9.60;99.90
12223;DHT22;6174;49.058;8.524;2024-02-26T09:06:53;9.50;99.90
12223;DHT22;6174;49.058;8.524;2024-02-26T09:09:21;9.70;99.90
12223;DHT22;6174;49.058;8.524;2024-02-26T09:11:50;9.90;99.90
12223;DHT22;6174;49.058;8.524;2024-02-26T09:14:17;9.90;99.90
12223;DHT22;6174;49.058;8.524;2024-02-26T09:16:44;10.00;99.90
12223;DHT22;6174;49.058;8.524;2024-02-26T09:19:11;10.00;99.90
12223;DHT22;6174;49.058;8.524;2024-02-26T09:21:42;9.90;99.90
12223;DHT22;6174;49.058;8.524;2024-02-26T09:24:09;10.10;99.90
12223;DHT22;6174;49.058;8.524;2024-02-26T09:26:37;10.10;99.90
12223;DHT22;6174;49.058;8.524;2024-02-26T09:29:04;10.10;99.90
12223;DHT22;6174;49.058;8.524;2024-02-26T09:31:31;10.20;99.90
12223;DHT22;6174;49.058;8.524;2024-02-26T09:33:59;10.20;99.90
12223;DHT22;6174;49.058;8.524;2024-02-26T09:36:26;10.30;99.90
12223;DHT22;6174;49.058;8.524;2024-02-26T09:38:53;10.50;99.90
12223;DHT22;6174;49.058;8.524;2024-02-26T09:41:20;10.50;99.90
12223;DHT22;6174;49.058;8.524;2024-02-26T09:43:48;10.50;99.90
12223;DHT22;6174;49.058;8.524;2024-02-26T09:46:17;10.40;99.90
12223;DHT22;6174;49.058;8.524;2024-02-26T09:48:46;10.50;99.90
12223;DHT22;6174;49.058;8.524;2024-02-26T09:51:14;10.70;99.90
12223;DHT22;6174;49.058;8.524;2024-02-26T09:53:43;10.70;99.90
12223;DHT22;6174;49.058;8.524;2024-02-26T09:56:11;10.60;99.90
12223;DHT22;6174;49.058;8.524;2024-02-26T09:58:38;10.60;99.90
12223;DHT22;6174;49.058;8.524;2024-02-26T10:01:11;10.60;99.90
12223;DHT22;6174;49.058;8.524;2024-02-26T10:03:41;10.70;99.90
12223;DHT22;6174;49.058;8.524;2024-02-26T10:06:10;10.70;99.90
12223;DHT22;6174;49.058;8.524;2024-02-26T10:08:37;10.80;99.90
12223;DHT22;6174;49.058;8.524;2024-02-26T10:11:05;11.00;99.90
12223;DHT22;6174;49.058;8.524;2024-02-26T10:13:34;11.10;99.90
12223;DHT22;6174;49.058;8.524;2024-02-26T10:16:01;11.10;99.90
12223;DHT22;6174;49.058;8.524;2024-02-26T10:18:48;11.10;99.90
12223;DHT22;6174;49.058;8.524;2024-02-26T10:21:16;10.90;99.90
12223;DHT22;6174;49.058;8.524;2024-02-26T10:23:44;10.80;99.90
12223;DHT22;6174;49.058;8.524;2024-02-26T10:26:12;10.80;99.90
12223;DHT22;6174;49.058;8.524;2024-02-26T10:28:39;10.90;99.90
12223;DHT22;6174;49.058;8.524;2024-02-26T10:31:06;10.80;99.90
12223;DHT22;6174;49.058;8.524;2024-02-26T10:33:33;10.80;99.90
12223;DHT22;6174;49.058;8.524;2024-02-26T10:36:03;10.80;99.90
12223;DHT22;6174;49.058;8.524;2024-02-26T10:38:31;10.90;99.90
12223;DHT22;6174;49.058;8.524;2024-02-26T10:40:58;11.00;99.90
12223;DHT22;6174;49.058;8.524;2024-02-26T10:43:25;11.10;99.90
12223;DHT22;6174;49.058;8.524;2024-02-26T10:45:54;11.10;99.90
12223;DHT22;6174;49.058;8.524;2024-02-26T10:48:21;11.20;99.90
12223;DHT22;6174;49.058;8.524;2024-02-26T10:50:48;11.30;99.90
12223;DHT22;6174;49.058;8.524;2024-02-26T10:53:19;11.40;99.90
12223;DHT22;6174;49.058;8.524;2024-02-26T10:55:49;11.40;99.90
12223;DHT22;6174;49.058;8.524;2024-02-26T10:58:18;11.50;99.90
12223;DHT22;6174;49.058;8.524;2024-02-26T11:00:45;11.50;99.90
12223;DHT22;6174;49.058;8.524;2024-02-26T11:03:14;11.50;99.90
12223;DHT22;6174;49.058;8.524;2024-02-26T11:05:43;11.60;99.90
12223;DHT22;6174;49.058;8.524;2024-02-26T11:08:11;11.70;99.90
12223;DHT22;6174;49.058;8.524;2024-02-26T11:10:40;11.80;99.90
12223;DHT22;6174;49.058;8.524;2024-02-26T11:13:09;11.80;99.90
12223;DHT22;6174;49.058;8.524;2024-02-26T11:15:37;11.90;99.90
12223;DHT22;6174;49.058;8.524;2024-02-26T11:18:07;12.00;99.90
12223;DHT22;6174;49.058;8.524;2024-02-26T11:20:38;12.20;99.90
12223;DHT22;6174;49.058;8.524;2024-02-26T11:23:05;12.30;99.90
12223;DHT22;6174;49.058;8.524;2024-02-26T11:25:34;12.40;99.90
12223;DHT22;6174;49.058;8.524;2024-02-26T11:28:06;12.70;99.90
12223;DHT22;6174;49.058;8.524;2024-02-26T11:30:38;12.80;99.90
12223;DHT22;6174;49.058;8.524;2024-02-26T11:33:07;12.90;99.90
12223;DHT22;6174;49.058;8.524;2024-02-26T11:35:34;12.90;99.90
12223;DHT22;6174;49.058;8.524;2024-02-26T11:38:02;13.00;99.90
12223;DHT22;6174;49.058;8.524;2024-02-26T11:40:32;13.10;99.90
12223;DHT22;6174;49.058;8.524;2024-02-26T11:42:59;13.20;99.90
12223;DHT22;6174;49.058;8.524;2024-02-26T11:45:49;13.20;99.90
12223;DHT22;6174;49.058;8.524;2024-02-26T11:48:20;13.30;99.90
12223;DHT22;6174;49.058;8.524;2024-02-26T11:50:48;13.50;99.90
12223;DHT22;6174;49.058;8.524;2024-02-26T11:53:26;13.40;99.90
12223;DHT22;6174;49.058;8.524;2024-02-26T11:56:21;13.50;99.90
12223;DHT22;6174;49.058;8.524;2024-02-26T11:58:48;13.60;99.90
12223;DHT22;6174;49.058;8.524;2024-02-26T12:01:39;13.50;99.90
12223;DHT22;6174;49.058;8.524;2024-02-26T12:04:07;13.70;99.90
12223;DHT22;6174;49.058;8.524;2024-02-26T12:06:46;13.90;99.90
12223;DHT22;6174;49.058;8.524;2024-02-26T12:09:13;14.00;99.90
12223;DHT22;6174;49.058;8.524;2024-02-26T12:11:41;14.20;99.90
12223;DHT22;6174;49.058;8.524;2024-02-26T12:14:09;14.20;99.90
12223;DHT22;6174;49.058;8.524;2024-02-26T12:16:37;14.30;99.90
12223;DHT22;6174;49.058;8.524;2024-02-26T12:19:06;14.40;99.80
12223;DHT22;6174;49.058;8.524;2024-02-26T12:21:34;14.20;99.90
12223;DHT22;6174;49.058;8.524;2024-02-26T12:24:10;14.30;99.90
12223;DHT22;6174;49.058;8.524;2024-02-26T12:26:38;14.60;99.00
12223;DHT22;6174;49.058;8.524;2024-02-26T12:29:05;14.50;98.60
12223;DHT22;6174;49.058;8.524;2024-02-26T12:31:32;14.60;98.10
12223;DHT22;6174;49.058;8.524;2024-02-26T12:33:59;14.80;98.60
12223;DHT22;6174;49.058;8.524;2024-02-26T12:36:28;14.90;98.70
12223;DHT22;6174;49.058;8.524;2024-02-26T12:38:55;15.30;97.70
12223;DHT22;6174;49.058;8.524;2024-02-26T12:41:22;15.10;97.20
12223;DHT22;6174;49.058;8.524;2024-02-26T12:43:49;15.40;97.10
12223;DHT22;6174;49.058;8.524;2024-02-26T12:46:16;15.40;97.10
12223;DHT22;6174;49.058;8.524;2024-02-26T12:48:43;15.60;95.90
12223;DHT22;6174;49.058;8.524;2024-02-26T12:51:12;15.90;95.60
12223;DHT22;6174;49.058;8.524;2024-02-26T12:53:40;16.10;95.60
12223;DHT22;6174;49.058;8.524;2024-02-26T12:56:07;16.30;95.00
12223;DHT22;6174;49.058;8.524;2024-02-26T12:58:35;16.40;94.10
12223;DHT22;6174;49.058;8.524;2024-02-26T13:01:04;16.00;94.50
12223;DHT22;6174;49.058;8.524;2024-02-26T13:03:34;16.30;94.80
12223;DHT22;6174;49.058;8.524;2024-02-26T13:06:01;16.20;94.10
12223;DHT22;6174;49.058;8.524;2024-02-26T13:08:31;16.30;94.90
12223;DHT22;6174;49.058;8.524;2024-02-26T13:11:00;16.40;94.20
12223;DHT22;6174;49.058;8.524;2024-02-26T13:13:27;16.40;93.80
12223;DHT22;6174;49.058;8.524;2024-02-26T13:16:01;16.40;94.00
12223;DHT22;6174;49.058;8.524;2024-02-26T13:18:28;16.10;95.00
12223;DHT22;6174;49.058;8.524;2024-02-26T13:21:07;16.00;95.40
12223;DHT22;6174;49.058;8.524;2024-02-26T13:23:34;15.60;95.70
12223;DHT22;6174;49.058;8.524;2024-02-26T13:26:02;15.40;94.70
12223;DHT22;6174;49.058;8.524;2024-02-26T13:28:29;15.20;96.30
12223;DHT22;6174;49.058;8.524;2024-02-26T13:30:56;15.00;96.50
12223;DHT22;6174;49.058;8.524;2024-02-26T13:33:25;15.00;96.10
12223;DHT22;6174;49.058;8.524;2024-02-26T13:35:53;15.00;96.10
12223;DHT22;6174;49.058;8.524;2024-02-26T13:38:20;15.00;96.70
12223;DHT22;6174;49.058;8.524;2024-02-26T13:40:47;15.20;96.60
12223;DHT22;6174;49.058;8.524;2024-02-26T13:43:15;15.60;96.20
12223;DHT22;6174;49.058;8.524;2024-02-26T13:45:42;16.30;94.80
12223;DHT22;6174;49.058;8.524;2024-02-26T13:48:10;16.90;94.30
12223;DHT22;6174;49.058;8.524;2024-02-26T13:50:37;16.50;93.80
12223;DHT22;6174;49.058;8.524;2024-02-26T13:53:04;16.50;93.50
12223;DHT22;6174;49.058;8.524;2024-02-26T13:55:32;16.40;94.10
12223;DHT22;6174;49.058;8.524;2024-02-26T13:57:59;16.20;93.70
12223;DHT22;6174;49.058;8.524;2024-02-26T14:00:29;15.80;93.80
12223;DHT22;6174;49.058;8.524;2024-02-26T14:02:58;15.40;94.50
12223;DHT22;6174;49.058;8.524;2024-02-26T14:05:25;15.30;95.40
12223;DHT22;6174;49.058;8.524;2024-02-26T14:07:52;15.30;94.40
12223;DHT22;6174;49.058;8.524;2024-02-26T14:10:19;15.50;95.60
12223;DHT22;6174;49.058;8.524;2024-02-26T14:12:46;16.30;93.40
12223;DHT22;6174;49.058;8.524;2024-02-26T14:15:12;18.20;91.10
12223;DHT22;6174;49.058;8.524;2024-02-26T14:17:41;19.70;89.10
12223;DHT22;6174;49.058;8.524;2024-02-26T14:20:09;21.30;82.70
12223;DHT22;6174;49.058;8.524;2024-02-26T14:22:36;21.30;80.20
12223;DHT22;6174;49.058;8.524;2024-02-26T14:25:03;19.90;83.40
12223;DHT22;6174;49.058;8.524;2024-02-26T14:27:30;19.00;85.50
12223;DHT22;6174;49.058;8.524;2024-02-26T14:29:56;18.80;86.50
12223;DHT22;6174;49.058;8.524;2024-02-26T14:32:23;18.10;88.40
12223;DHT22;6174;49.058;8.524;2024-02-26T14:34:51;17.20;91.00
12223;DHT22;6174;49.058;8.524;2024-02-26T14:37:18;17.70;90.50
12223;DHT22;6174;49.058;8.524;2024-02-26T14:39:45;17.20;90.90
12223;DHT22;6174;49.058;8.524;2024-02-26T14:42:13;16.90;90.80
12223;DHT22;6174;49.058;8.524;2024-02-26T14:44:42;16.90;91.20
12223;DHT22;6174;49.058;8.524;2024-02-26T14:47:09;16.30;92.60
12223;DHT22;6174;49.058;8.524;2024-02-26T14:49:36;15.50;93.40
12223;DHT22;6174;49.058;8.524;2024-02-26T14:52:05;15.50;93.50
12223;DHT22;6174;49.058;8.524;2024-02-26T14:54:31;16.80;92.70
12223;DHT22;6174;49.058;8.524;2024-02-26T14:57:02;18.70;87.40
12223;DHT22;6174;49.058;8.524;2024-02-26T14:59:30;20.10;83.60
12223;DHT22;6174;49.058;8.524;2024-02-26T15:01:57;20.60;79.30
12223;DHT22;6174;49.058;8.524;2024-02-26T15:04:25;22.10;76.30
12223;DHT22;6174;49.058;8.524;2024-02-26T15:06:52;22.10;73.30
12223;DHT22;6174;49.058;8.524;2024-02-26T15:09:20;22.50;72.80
12223;DHT22;6174;49.058;8.524;2024-02-26T15:11:47;21.40;74.50
12223;DHT22;6174;49.058;8.524;2024-02-26T15:14:14;22.00;76.20
12223;DHT22;6174;49.058;8.524;2024-02-26T15:16:40;20.80;76.80
12223;DHT22;6174;49.058;8.524;2024-02-26T15:19:07;19.40;79.80
12223;DHT22;6174;49.058;8.524;2024-02-26T15:21:34;17.70;84.50
12223;DHT22;6174;49.058;8.524;2024-02-26T15:24:01;16.90;89.20
12223;DHT22;6174;49.058;8.524;2024-02-26T15:26:29;17.00;89.90
12223;DHT22;6174;49.058;8.524;2024-02-26T15:28:56;17.40;89.00
12223;DHT22;6174;49.058;8.524;2024-02-26T15:31:23;17.70;89.50
12223;DHT22;6174;49.058;8.524;2024-02-26T15:33:49;18.50;87.60
12223;DHT22;6174;49.058;8.524;2024-02-26T15:36:16;18.20;85.20
12223;DHT22;6174;49.058;8.524;2024-02-26T15:38:43;18.00;87.50
12223;DHT22;6174;49.058;8.524;2024-02-26T15:41:13;17.50;87.80
12223;DHT22;6174;49.058;8.524;2024-02-26T15:43:41;17.00;88.80
12223;DHT22;6174;49.058;8.524;2024-02-26T15:46:08;16.90;90.10
12223;DHT22;6174;49.058;8.524;2024-02-26T15:48:36;16.50;90.50
12223;DHT22;6174;49.058;8.524;2024-02-26T15:51:04;16.40;91.00
12223;DHT22;6174;49.058;8.524;2024-02-26T15:53:30;16.20;90.80
12223;DHT22;6174;49.058;8.524;2024-02-26T15:55:57;15.90;91.20
12223;DHT22;6174;49.058;8.524;2024-02-26T15:58:24;15.40;91.90
12223;DHT22;6174;49.058;8.524;2024-02-26T16:00:52;14.80;92.90
12223;DHT22;6174;49.058;8.524;2024-02-26T16:03:19;14.90;93.10
12223;DHT22;6174;49.058;8.524;2024-02-26T16:05:46;14.70;94.40
12223;DHT22;6174;49.058;8.524;2024-02-26T16:08:17;14.40;94.30
12223;DHT22;6174;49.058;8.524;2024-02-26T16:10:46;14.30;94.50
12223;DHT22;6174;49.058;8.524;2024-02-26T16:13:13;14.20;94.50
12223;DHT22;6174;49.058;8.524;2024-02-26T16:15:44;14.20;94.80
12223;DHT22;6174;49.058;8.524;2024-02-26T16:18:13;14.00;95.10
12223;DHT22;6174;49.058;8.524;2024-02-26T16:20:41;14.00;95.60
12223;DHT22;6174;49.058;8.524;2024-02-26T16:23:08;13.80;96.00
12223;DHT22;6174;49.058;8.524;2024-02-26T16:25:35;13.50;96.30
12223;DHT22;6174;49.058;8.524;2024-02-26T16:28:03;13.30;97.00
12223;DHT22;6174;49.058;8.524;2024-02-26T16:30:29;13.20;97.20
12223;DHT22;6174;49.058;8.524;2024-02-26T16:32:57;13.20;97.50
12223;DHT22;6174;49.058;8.524;2024-02-26T16:35:25;13.30;97.50
12223;DHT22;6174;49.058;8.524;2024-02-26T16:37:52;13.30;97.40
12223;DHT22;6174;49.058;8.524;2024-02-26T16:40:19;13.10;97.70
12223;DHT22;6174;49.058;8.524;2024-02-26T16:42:46;13.00;98.30
12223;DHT22;6174;49.058;8.524;2024-02-26T16:45:13;13.00;98.50
12223;DHT22;6174;49.058;8.524;2024-02-26T16:47:40;12.80;98.50
12223;DHT22;6174;49.058;8.524;2024-02-26T16:50:08;12.80;98.40
12223;DHT22;6174;49.058;8.524;2024-02-26T16:52:37;12.70;98.70
12223;DHT22;6174;49.058;8.524;2024-02-26T16:55:04;12.60;98.70
12223;DHT22;6174;49.058;8.524;2024-02-26T16:57:31;12.60;98.90
12223;DHT22;6174;49.058;8.524;2024-02-26T16:59:58;12.60;99.10
12223;DHT22;6174;49.058;8.524;2024-02-26T17:02:24;12.60;99.00
12223;DHT22;6174;49.058;8.524;2024-02-26T17:04:51;12.50;99.10
12223;DHT22;6174;49.058;8.524;2024-02-26T17:07:18;12.60;99.10
12223;DHT22;6174;49.058;8.524;2024-02-26T17:09:46;12.50;99.10
12223;DHT22;6174;49.058;8.524;2024-02-26T17:12:13;12.50;98.80
12223;DHT22;6174;49.058;8.524;2024-02-26T17:14:41;12.50;98.70
12223;DHT22;6174;49.058;8.524;2024-02-26T17:17:13;12.40;98.60
12223;DHT22;6174;49.058;8.524;2024-02-26T17:19:40;12.40;98.70
12223;DHT22;6174;49.058;8.524;2024-02-26T17:22:07;12.40;98.60
12223;DHT22;6174;49.058;8.524;2024-02-26T17:24:36;12.40;98.80
12223;DHT22;6174;49.058;8.524;2024-02-26T17:27:05;12.40;98.70
12223;DHT22;6174;49.058;8.524;2024-02-26T17:29:31;12.40;98.60
12223;DHT22;6174;49.058;8.524;2024-02-26T17:31:59;12.20;98.70
12223;DHT22;6174;49.058;8.524;2024-02-26T17:34:27;12.30;99.00
12223;DHT22;6174;49.058;8.524;2024-02-26T17:36:53;12.20;98.80
12223;DHT22;6174;49.058;8.524;2024-02-26T17:39:21;12.30;98.80
12223;DHT22;6174;49.058;8.524;2024-02-26T17:41:48;12.30;98.60
12223;DHT22;6174;49.058;8.524;2024-02-26T17:44:16;12.30;98.90
12223;DHT22;6174;49.058;8.524;2024-02-26T17:46:43;12.30;98.60
12223;DHT22;6174;49.058;8.524;2024-02-26T17:49:10;12.20;98.80
12223;DHT22;6174;49.058;8.524;2024-02-26T17:51:37;12.20;98.90
12223;DHT22;6174;49.058;8.524;2024-02-26T17:54:03;12.20;98.90
12223;DHT22;6174;49.058;8.524;2024-02-26T17:56:30;12.30;98.90
12223;DHT22;6174;49.058;8.524;2024-02-26T17:58:57;12.30;98.80
12223;DHT22;6174;49.058;8.524;2024-02-26T18:01:26;12.20;98.90
12223;DHT22;6174;49.058;8.524;2024-02-26T18:03:53;12.20;98.80
12223;DHT22;6174;49.058;8.524;2024-02-26T18:06:20;12.20;98.90
12223;DHT22;6174;49.058;8.524;2024-02-26T18:08:46;12.20;99.00
12223;DHT22;6174;49.058;8.524;2024-02-26T18:11:13;12.10;99.00
12223;DHT22;6174;49.058;8.524;2024-02-26T18:13:40;12.10;99.30
12223;DHT22;6174;49.058;8.524;2024-02-26T18:16:10;12.20;99.10
12223;DHT22;6174;49.058;8.524;2024-02-26T18:18:38;12.10;99.10
12223;DHT22;6174;49.058;8.524;2024-02-26T18:21:05;12.10;99.10
12223;DHT22;6174;49.058;8.524;2024-02-26T18:23:31;12.20;99.20
12223;DHT22;6174;49.058;8.524;2024-02-26T18:25:58;12.10;99.20
12223;DHT22;6174;49.058;8.524;2024-02-26T18:28:25;12.00;99.70
12223;DHT22;6174;49.058;8.524;2024-02-26T18:30:52;12.00;99.80
12223;DHT22;6174;49.058;8.524;2024-02-26T18:33:18;12.00;99.90
12223;DHT22;6174;49.058;8.524;2024-02-26T18:35:46;12.00;99.90
12223;DHT22;6174;49.058;8.524;2024-02-26T18:38:13;12.00;99.90
12223;DHT22;6174;49.058;8.524;2024-02-26T18:40:40;11.90;99.80
12223;DHT22;6174;49.058;8.524;2024-02-26T18:43:07;11.90;99.70
12223;DHT22;6174;49.058;8.524;2024-02-26T18:45:34;11.90;99.50
12223;DHT22;6174;49.058;8.524;2024-02-26T18:48:00;11.90;99.40
12223;DHT22;6174;49.058;8.524;2024-02-26T18:50:28;11.80;99.50
12223;DHT22;6174;49.058;8.524;2024-02-26T18:52:58;11.80;99.70
12223;DHT22;6174;49.058;8.524;2024-02-26T18:55:27;11.70;99.90
12223;DHT22;6174;49.058;8.524;2024-02-26T18:57:54;11.80;99.80
12223;DHT22;6174;49.058;8.524;2024-02-26T19:00:20;11.80;99.90
12223;DHT22;6174;49.058;8.524;2024-02-26T19:02:47;11.80;99.90
12223;DHT22;6174;49.058;8.524;2024-02-26T19:05:14;11.70;99.90
12223;DHT22;6174;49.058;8.524;2024-02-26T19:07:42;11.80;99.90
12223;DHT22;6174;49.058;8.524;2024-02-26T19:10:10;11.70;99.90
12223;DHT22;6174;49.058;8.524;2024-02-26T19:12:37;11.70;99.90
12223;DHT22;6174;49.058;8.524;2024-02-26T19:15:05;11.70;99.90
12223;DHT22;6174;49.058;8.524;2024-02-26T19:17:33;11.60;99.90
12223;DHT22;6174;49.058;8.524;2024-02-26T19:19:59;11.60;99.90
12223;DHT22;6174;49.058;8.524;2024-02-26T19:22:26;11.50;99.90
12223;DHT22;6174;49.058;8.524;2024-02-26T19:24:53;11.60;99.90
12223;DHT22;6174;49.058;8.524;2024-02-26T19:27:21;11.50;99.90
12223;DHT22;6174;49.058;8.524;2024-02-26T19:29:48;11.50;99.90
12223;DHT22;6174;49.058;8.524;2024-02-26T19:32:15;11.50;99.90
12223;DHT22;6174;49.058;8.524;2024-02-26T19:34:41;11.40;99.90
12223;DHT22;6174;49.058;8.524;2024-02-26T19:37:08;11.30;99.90
12223;DHT22;6174;49.058;8.524;2024-02-26T19:39:35;11.30;99.90
12223;DHT22;6174;49.058;8.524;2024-02-26T19:42:01;11.30;99.90
12223;DHT22;6174;49.058;8.524;2024-02-26T19:44:30;11.30;99.90
12223;DHT22;6174;49.058;8.524;2024-02-26T19:46:56;11.20;99.90
12223;DHT22;6174;49.058;8.524;2024-02-26T19:49:23;11.10;99.90
12223;DHT22;6174;49.058;8.524;2024-02-26T19:51:50;11.10;99.90
12223;DHT22;6174;49.058;8.524;2024-02-26T19:54:16;11.10;99.90
12223;DHT22;6174;49.058;8.524;2024-02-26T19:56:42;11.30;99.90
12223;DHT22;6174;49.058;8.524;2024-02-26T19:59:12;11.40;99.90
12223;DHT22;6174;49.058;8.524;2024-02-26T20:01:40;11.20;99.90
12223;DHT22;6174;49.058;8.524;2024-02-26T20:04:08;11.10;99.90
12223;DHT22;6174;49.058;8.524;2024-02-26T20:06:38;11.00;99.90
12223;DHT22;6174;49.058;8.524;2024-02-26T20:09:05;11.00;99.90
12223;DHT22;6174;49.058;8.524;2024-02-26T20:11:33;11.00;99.90
12223;DHT22;6174;49.058;8.524;2024-02-26T20:13:59;10.90;99.90
12223;DHT22;6174;49.058;8.524;2024-02-26T20:16:26;10.90;99.90
12223;DHT22;6174;49.058;8.524;2024-02-26T20:18:55;11.00;99.90
12223;DHT22;6174;49.058;8.524;2024-02-26T20:21:21;10.90;99.90
12223;DHT22;6174;49.058;8.524;2024-02-26T20:23:48;10.80;99.90
12223;DHT22;6174;49.058;8.524;2024-02-26T20:26:15;10.90;99.90
12223;DHT22;6174;49.058;8.524;2024-02-26T20:28:42;10.90;99.90
12223;DHT22;6174;49.058;8.524;2024-02-26T20:31:08;10.90;99.90
12223;DHT22;6174;49.058;8.524;2024-02-26T20:33:35;10.80;99.90
12223;DHT22;6174;49.058;8.524;2024-02-26T20:36:06;10.90;99.90
12223;DHT22;6174;49.058;8.524;2024-02-26T20:38:33;11.00;99.90
12223;DHT22;6174;49.058;8.524;2024-02-26T20:40:59;10.90;99.90
12223;DHT22;6174;49.058;8.524;2024-02-26T20:43:26;10.90;99.90
12223;DHT22;6174;49.058;8.524;2024-02-26T20:45:53;10.90;99.90
12223;DHT22;6174;49.058;8.524;2024-02-26T20:48:20;10.80;99.90
12223;DHT22;6174;49.058;8.524;2024-02-26T20:50:47;10.70;99.90
12223;DHT22;6174;49.058;8.524;2024-02-26T20:53:15;10.80;99.90
12223;DHT22;6174;49.058;8.524;2024-02-26T20:55:41;10.60;99.90
12223;DHT22;6174;49.058;8.524;2024-02-26T20:58:09;10.60;99.90
12223;DHT22;6174;49.058;8.524;2024-02-26T21:00:36;10.70;99.90
12223;DHT22;6174;49.058;8.524;2024-02-26T21:03:04;10.80;99.90
12223;DHT22;6174;49.058;8.524;2024-02-26T21:05:34;10.70;99.90
12223;DHT22;6174;49.058;8.524;2024-02-26T21:08:01;10.70;99.90
12223;DHT22;6174;49.058;8.524;2024-02-26T21:10:29;10.70;99.90
12223;DHT22;6174;49.058;8.524;2024-02-26T21:12:56;10.80;99.90
12223;DHT22;6174;49.058;8.524;2024-02-26T21:15:23;10.70;99.90
12223;DHT22;6174;49.058;8.524;2024-02-26T21:17:50;10.70;99.90
12223;DHT22;6174;49.058;8.524;2024-02-26T21:20:17;10.70;99.90
12223;DHT22;6174;49.058;8.524;2024-02-26T21:22:45;10.70;99.80
12223;DHT22;6174;49.058;8.524;2024-02-26T21:25:12;10.70;99.70
12223;DHT22;6174;49.058;8.524;2024-02-26T21:27:40;10.80;99.30
12223;DHT22;6174;49.058;8.524;2024-02-26T21:30:10;10.70;99.80
12223;DHT22;6174;49.058;8.524;2024-02-26T21:32:37;10.60;99.80
12223;DHT22;6174;49.058;8.524;2024-02-26T21:35:05;10.70;99.50
12223;DHT22;6174;49.058;8.524;2024-02-26T21:37:32;10.70;99.70
12223;DHT22;6174;49.058;8.524;2024-02-26T21:39:59;10.60;99.80
12223;DHT22;6174;49.058;8.524;2024-02-26T21:42:25;10.60;99.90
12223;DHT22;6174;49.058;8.524;2024-02-26T21:44:54;10.70;99.70
12223;DHT22;6174;49.058;8.524;2024-02-26T21:47:20;10.70;99.70
12223;DHT22;6174;49.058;8.524;2024-02-26T21:49:47;10.60;99.80
12223;DHT22;6174;49.058;8.524;2024-02-26T21:52:14;10.60;99.80